Gotham, Wisconsin
Current Conditions -  °F | °C
As of 8:56 PM on Wednesday 22 Oct 2014 (Local Time) from KLNR Reporting Station
Clear Clear  
Wind Chill: 40°   Ceiling: Unl
Heat Index: 44°   Visibility: 10mi
Dew Point: 34°   Wind: 7mph
Humidity: 68%   Direction: 120°ESE
Pressure: 30.22"   Gusts: NA
Location:  43.22°N, 90.29°W
Report Text: KLNR 230156Z AUTO 12006KT 10SM CLR 07/01 A3022 RMK AO2 SLP235 T00670011
Loading
Personal Weather Stations






























Interactive Weather Map
Tropical Storm Tracking
New forecast layout! Learn more

10-Day Weather Forecast

Advertisements
Track Severe Weather on mobile